createdAt,value
2018-06-15T00:00:26.333Z,16.02
2018-06-15T00:01:26.316Z,16.02
2018-06-15T00:02:26.299Z,15.93
2018-06-15T00:03:26.282Z,16.05
2018-06-15T00:04:26.266Z,15.96
2018-06-15T00:05:26.251Z,16.02
2018-06-15T00:06:26.236Z,16.05
2018-06-15T00:07:26.213Z,16.05
2018-06-15T00:08:26.199Z,16.04
2018-06-15T00:09:26.179Z,16.04
2018-06-15T00:10:26.170Z,16.04
2018-06-15T00:11:26.146Z,16.02
2018-06-15T00:12:26.128Z,16.04
2018-06-15T00:13:26.111Z,16.05
2018-06-15T00:14:26.095Z,16.08
2018-06-15T00:15:26.078Z,16.09
2018-06-15T00:16:26.059Z,15.97
2018-06-15T00:17:26.046Z,16.04
2018-06-15T00:18:26.027Z,16.04
2018-06-15T00:19:26.011Z,16.04
2018-06-15T00:20:25.991Z,16.05
2018-06-15T00:21:25.975Z,16.07
2018-06-15T00:22:25.959Z,16.04
2018-06-15T00:23:25.943Z,16.12
2018-06-15T00:24:25.924Z,16.09
2018-06-15T00:25:25.911Z,16.11
2018-06-15T00:26:25.892Z,16.14
2018-06-15T00:27:25.873Z,16.14
2018-06-15T00:28:25.856Z,16.14
2018-06-15T00:29:25.842Z,16.05
2018-06-15T00:30:25.823Z,16.08
2018-06-15T00:31:25.804Z,16.09
2018-06-15T00:32:25.788Z,16.08
2018-06-15T00:33:25.771Z,16.17
2018-06-15T00:34:25.757Z,16.09
2018-06-15T00:35:25.736Z,16.07
2018-06-15T00:36:25.720Z,16.12
2018-06-15T00:37:25.704Z,16.09
2018-06-15T00:38:25.685Z,16.12
2018-06-15T00:39:25.669Z,16.15
2018-06-15T00:40:25.659Z,16.09
2018-06-15T00:41:25.634Z,16.07
2018-06-15T00:42:25.622Z,16.09
2018-06-15T00:43:25.600Z,16.11
2018-06-15T00:44:25.585Z,16.11
2018-06-15T00:45:25.570Z,16.05
2018-06-15T00:46:25.553Z,16.08
2018-06-15T00:47:25.533Z,16.15
2018-06-15T00:48:25.514Z,16.07
2018-06-15T00:49:25.849Z,16.11
2018-06-15T00:50:25.479Z,16.11
2018-06-15T00:51:25.473Z,16.08
2018-06-15T00:52:25.447Z,16.11
2018-06-15T00:53:25.430Z,16.07
2018-06-15T00:54:25.412Z,16.14
2018-06-15T00:55:25.396Z,16.15
2018-06-15T00:56:25.377Z,16.14
2018-06-15T00:57:25.362Z,16.09
2018-06-15T00:58:25.343Z,16.09
2018-06-15T00:59:25.330Z,16.09
2018-06-15T01:00:25.309Z,16.20
2018-06-15T01:01:25.292Z,16.21
2018-06-15T01:02:25.279Z,16.08
2018-06-15T01:03:25.256Z,16.20
2018-06-15T01:04:25.241Z,16.21
2018-06-15T01:05:25.225Z,16.30
2018-06-15T01:06:25.207Z,16.08
2018-06-15T01:07:25.191Z,16.14
2018-06-15T01:08:25.173Z,16.12
2018-06-15T01:09:25.168Z,16.28
2018-06-15T01:10:25.141Z,16.17
2018-06-15T01:11:25.123Z,16.21
2018-06-15T01:12:25.108Z,16.21
2018-06-15T01:13:25.089Z,16.20
2018-06-15T01:14:25.075Z,16.27
2018-06-15T01:15:25.060Z,16.25
2018-06-15T01:16:25.037Z,16.20
2018-06-15T01:17:25.025Z,16.14
2018-06-15T01:18:25.005Z,16.21
2018-06-15T01:19:24.989Z,16.20
2018-06-15T01:20:24.970Z,16.34
2018-06-15T01:21:24.954Z,16.41
2018-06-15T01:22:24.942Z,16.33
2018-06-15T01:23:24.920Z,16.48
2018-06-15T01:24:24.901Z,16.42
2018-06-15T01:25:24.887Z,16.46
2018-06-15T01:26:24.865Z,16.50
2018-06-15T01:27:24.852Z,16.52
2018-06-15T01:28:24.836Z,16.60
2018-06-15T01:29:24.820Z,16.61
2018-06-15T01:30:24.801Z,16.66
2018-06-15T01:31:24.785Z,16.61
2018-06-15T01:32:24.768Z,16.64
2018-06-15T01:33:24.751Z,16.71
2018-06-15T01:34:24.734Z,16.73
2018-06-15T01:35:24.718Z,16.79
2018-06-15T01:36:24.698Z,16.82
2018-06-15T01:37:24.683Z,16.85
2018-06-15T01:38:24.669Z,16.86
2018-06-15T01:39:24.650Z,16.85
2018-06-15T01:40:24.632Z,16.94
2018-06-15T01:41:24.614Z,16.89
2018-06-15T01:42:24.599Z,17.01
2018-06-15T01:43:24.583Z,16.98
2018-06-15T01:44:24.564Z,17.00
2018-06-15T01:45:24.554Z,16.86
2018-06-15T01:46:24.532Z,16.94
2018-06-15T01:47:24.514Z,16.96
2018-06-15T01:48:24.498Z,17.08
2018-06-15T01:49:24.483Z,17.04
2018-06-15T01:50:24.474Z,17.06
2018-06-15T01:51:24.450Z,17.11
2018-06-15T01:52:24.434Z,17.11
2018-06-15T01:53:24.415Z,17.08
2018-06-15T01:54:24.401Z,17.11
2018-06-15T01:55:24.383Z,17.14
2018-06-15T01:56:24.367Z,17.18
2018-06-15T01:57:24.349Z,17.18
2018-06-15T01:58:24.332Z,17.16
2018-06-15T01:59:24.319Z,17.18
2018-06-15T02:00:24.300Z,17.21
2018-06-15T02:01:24.406Z,17.19
2018-06-15T02:02:24.272Z,17.30
2018-06-15T02:03:24.249Z,17.18
2018-06-15T02:04:24.234Z,17.33
2018-06-15T02:05:24.223Z,17.22
2018-06-15T02:06:24.210Z,17.28
2018-06-15T02:07:24.185Z,17.22
2018-06-15T02:08:24.172Z,17.22
2018-06-15T02:09:24.153Z,17.34
2018-06-15T02:10:24.134Z,17.28
2018-06-15T02:11:24.125Z,17.33
2018-06-15T02:12:24.102Z,17.26
2018-06-15T02:13:24.136Z,17.28
2018-06-15T02:14:24.070Z,17.33
2018-06-15T02:15:24.059Z,17.34
2018-06-15T02:16:24.045Z,17.36
2018-06-15T02:17:24.019Z,17.36
2018-06-15T02:18:24.004Z,17.36
2018-06-15T02:19:23.992Z,17.40
2018-06-15T02:20:23.971Z,17.48
2018-06-15T02:21:23.955Z,17.46
2018-06-15T02:22:23.939Z,17.41
2018-06-15T02:23:23.929Z,17.43
2018-06-15T02:24:23.906Z,17.48
2018-06-15T02:25:23.889Z,17.51
2018-06-15T02:26:23.873Z,17.46
2018-06-15T02:27:23.859Z,17.40
2018-06-15T02:28:23.840Z,17.48
2018-06-15T02:29:23.824Z,17.51
2018-06-15T02:30:23.808Z,17.59
2018-06-15T02:31:23.792Z,17.49
2018-06-15T02:32:23.777Z,17.52
2018-06-15T02:33:23.759Z,17.49
2018-06-15T02:34:23.743Z,17.54
2018-06-15T02:35:23.728Z,17.58
2018-06-15T02:36:23.713Z,17.56
2018-06-15T02:37:23.696Z,17.58
2018-06-15T02:38:23.678Z,17.55
2018-06-15T02:39:23.664Z,17.58
2018-06-15T02:40:23.646Z,17.56
2018-06-15T02:41:23.629Z,17.56
2018-06-15T02:42:23.615Z,17.56
2018-06-15T02:43:23.599Z,17.56
2018-06-15T02:44:23.585Z,17.54
2018-06-15T02:45:23.606Z,17.58
2018-06-15T02:46:23.556Z,17.56
2018-06-15T02:47:23.534Z,17.52
2018-06-15T02:48:23.515Z,17.62
2018-06-15T02:49:23.498Z,17.54
2018-06-15T02:50:23.488Z,17.59
2018-06-15T02:51:23.470Z,17.54
2018-06-15T02:52:23.452Z,17.55
2018-06-15T02:53:23.442Z,17.52
2018-06-15T02:54:23.421Z,17.58
2018-06-15T02:55:23.402Z,17.58
2018-06-15T02:56:23.385Z,17.58
2018-06-15T02:57:23.367Z,17.55
2018-06-15T02:58:23.352Z,17.62
2018-06-15T02:59:23.336Z,17.58
2018-06-15T03:00:23.317Z,17.58
2018-06-15T03:01:23.303Z,17.58
2018-06-15T03:02:23.300Z,17.46
2018-06-15T03:03:23.271Z,17.49
2018-06-15T03:04:23.253Z,17.51
2018-06-15T03:05:23.237Z,17.51
2018-06-15T03:06:26.175Z,17.55
2018-06-15T03:07:23.205Z,17.48
2018-06-15T03:08:23.189Z,17.40
2018-06-15T03:09:23.174Z,17.31
2018-06-15T03:10:23.159Z,17.43
2018-06-15T03:11:23.145Z,17.41
2018-06-15T03:12:23.125Z,17.48
2018-06-15T03:13:23.108Z,17.51
2018-06-15T03:14:23.092Z,17.43
2018-06-15T03:15:23.079Z,17.48
2018-06-15T03:16:23.063Z,17.46
2018-06-15T03:17:23.043Z,17.41
2018-06-15T03:18:23.030Z,17.46
2018-06-15T03:19:23.013Z,17.55
2018-06-15T03:20:22.994Z,17.55
2018-06-15T03:21:22.978Z,17.56
2018-06-15T03:22:22.960Z,17.56
2018-06-15T03:23:22.947Z,17.63
2018-06-15T03:24:22.930Z,17.62
2018-06-15T03:25:22.912Z,17.74
2018-06-15T03:26:22.901Z,17.62
2018-06-15T03:27:22.883Z,17.66
2018-06-15T03:28:22.863Z,17.64
2018-06-15T03:29:22.849Z,17.58
2018-06-15T03:30:22.832Z,17.74
2018-06-15T03:31:22.820Z,17.62
2018-06-15T03:32:22.801Z,17.70
2018-06-15T03:33:22.785Z,17.70
2018-06-15T03:34:22.771Z,17.59
2018-06-15T03:35:22.756Z,17.74
2018-06-15T03:36:22.735Z,17.68
2018-06-15T03:37:22.724Z,17.64
2018-06-15T03:38:22.706Z,17.74
2018-06-15T03:39:22.692Z,17.77
2018-06-15T03:40:22.673Z,17.71
2018-06-15T03:41:22.657Z,17.72
2018-06-15T03:42:22.641Z,17.75
2018-06-15T03:43:22.627Z,17.74
2018-06-15T03:44:22.612Z,17.74
2018-06-15T03:45:22.591Z,17.72
2018-06-15T03:46:22.575Z,17.78
2018-06-15T03:47:22.565Z,17.75
2018-06-15T03:48:22.545Z,17.84
2018-06-15T03:49:22.532Z,17.86
2018-06-15T03:50:22.514Z,17.82
2018-06-15T03:51:22.496Z,17.90
2018-06-15T03:52:22.484Z,17.81
2018-06-15T03:53:22.475Z,17.92
2018-06-15T03:54:22.449Z,17.93
2018-06-15T03:55:22.433Z,17.90
2018-06-15T03:56:22.421Z,17.96
2018-06-15T03:57:22.399Z,17.86
2018-06-15T03:58:22.385Z,17.93
2018-06-15T03:59:22.376Z,17.89
2018-06-15T04:00:22.352Z,17.95
2018-06-15T04:01:22.337Z,17.95
2018-06-15T04:02:22.321Z,17.97
2018-06-15T04:03:22.305Z,17.99
2018-06-15T04:04:22.293Z,18.07
2018-06-15T04:05:22.274Z,18.02
2018-06-15T04:06:22.258Z,18.08
2018-06-15T04:07:22.242Z,18.08
2018-06-15T04:08:22.225Z,18.12
2018-06-15T04:09:22.210Z,18.12
2018-06-15T04:10:22.197Z,18.17
2018-06-15T04:11:22.180Z,18.12
2018-06-15T04:12:22.161Z,18.15
2018-06-15T04:13:22.149Z,18.05
2018-06-15T04:14:22.131Z,18.17
2018-06-15T04:15:22.116Z,18.25
2018-06-15T04:16:22.100Z,18.17
2018-06-15T04:17:22.085Z,18.27
2018-06-15T04:18:22.069Z,18.18
2018-06-15T04:19:22.053Z,18.27
2018-06-15T04:20:22.039Z,18.18
2018-06-15T04:21:22.023Z,18.15
2018-06-15T04:22:22.003Z,18.27
2018-06-15T04:23:22.002Z,18.29
2018-06-15T04:24:21.975Z,18.29
2018-06-15T04:25:21.961Z,18.27
2018-06-15T04:26:21.946Z,18.36
2018-06-15T04:27:21.929Z,18.39
2018-06-15T04:28:21.914Z,18.39
2018-06-15T04:29:21.897Z,18.41
2018-06-15T04:30:21.888Z,18.26
2018-06-15T04:31:21.867Z,18.33
2018-06-15T04:32:21.851Z,18.33
2018-06-15T04:33:21.838Z,18.32
2018-06-15T04:34:21.820Z,18.36
2018-06-15T04:35:21.806Z,18.35
2018-06-15T04:36:21.789Z,18.35
2018-06-15T04:37:21.831Z,18.39
2018-06-15T04:38:21.760Z,18.35
2018-06-15T04:39:21.742Z,18.39
2018-06-15T04:40:21.730Z,18.36
2018-06-15T04:41:21.712Z,18.44
2018-06-15T04:42:21.700Z,18.52
2018-06-15T04:43:21.690Z,18.48
2018-06-15T04:44:21.667Z,18.54
2018-06-15T04:45:21.649Z,18.48
2018-06-15T04:46:21.638Z,18.55
2018-06-15T04:47:21.620Z,18.60
2018-06-15T04:48:21.604Z,18.63
2018-06-15T04:49:21.589Z,18.72
2018-06-15T04:50:21.577Z,18.73
2018-06-15T04:51:21.557Z,18.66
2018-06-15T04:52:21.552Z,18.78
2018-06-15T04:53:21.535Z,18.82
2018-06-15T04:54:21.514Z,18.95
2018-06-15T04:55:21.500Z,18.76
2018-06-15T04:56:21.560Z,18.87
2018-06-15T04:57:21.473Z,18.91
2018-06-15T04:58:21.454Z,18.87
2018-06-15T04:59:21.440Z,18.80
2018-06-15T05:00:21.425Z,18.85
2018-06-15T05:01:21.405Z,18.85
2018-06-15T05:02:21.392Z,18.90
2018-06-15T05:03:21.429Z,18.88
2018-06-15T05:04:21.359Z,18.84
2018-06-15T05:05:21.347Z,18.91
2018-06-15T05:06:21.332Z,18.84
2018-06-15T05:07:21.317Z,18.82
2018-06-15T05:08:21.302Z,18.91
2018-06-15T05:09:21.292Z,19.00
2018-06-15T05:10:21.274Z,19.00
2018-06-15T05:11:21.262Z,19.14
2018-06-15T05:12:21.244Z,19.21
2018-06-15T05:13:21.229Z,19.22
2018-06-15T05:14:21.214Z,19.25
2018-06-15T05:15:21.198Z,19.28
2018-06-15T05:16:21.184Z,19.26
2018-06-15T05:17:21.231Z,19.29
2018-06-15T05:18:21.154Z,19.36
2018-06-15T05:19:21.139Z,19.40
2018-06-15T05:20:21.123Z,19.39
2018-06-15T05:21:21.111Z,19.39
2018-06-15T05:22:21.095Z,19.31
2018-06-15T05:23:21.080Z,19.46
2018-06-15T05:24:21.064Z,19.46
2018-06-15T05:25:21.054Z,19.43
2018-06-15T05:26:21.036Z,19.36
2018-06-15T05:27:21.023Z,19.46
2018-06-15T05:28:21.006Z,19.46
2018-06-15T05:29:20.995Z,19.46
2018-06-15T05:30:20.977Z,19.46
2018-06-15T05:31:20.962Z,19.50
2018-06-15T05:32:20.947Z,19.46
2018-06-15T05:33:20.932Z,19.55
2018-06-15T05:34:20.918Z,19.50
2018-06-15T05:35:20.966Z,19.56
2018-06-15T05:36:20.889Z,19.58
2018-06-15T05:37:20.874Z,19.65
2018-06-15T05:38:20.860Z,19.66
2018-06-15T05:39:20.845Z,19.76
2018-06-15T05:40:20.832Z,19.84
2018-06-15T05:41:20.817Z,19.86
2018-06-15T05:42:20.808Z,19.95
2018-06-15T05:43:20.795Z,20.01
2018-06-15T05:44:20.774Z,20.05
2018-06-15T05:45:20.760Z,20.14
2018-06-15T05:46:20.747Z,20.13
2018-06-15T05:47:20.733Z,20.08
2018-06-15T05:48:20.717Z,20.17
2018-06-15T05:49:20.704Z,20.20
2018-06-15T05:50:20.689Z,20.20
2018-06-15T05:51:20.672Z,20.24
2018-06-15T05:52:20.660Z,20.17
2018-06-15T05:53:20.646Z,20.20
2018-06-15T05:54:20.632Z,20.14
2018-06-15T05:55:20.619Z,20.23
2018-06-15T05:56:20.605Z,20.13
2018-06-15T05:57:20.588Z,20.08
2018-06-15T05:58:20.577Z,20.13
2018-06-15T05:59:20.563Z,20.11
2018-06-15T06:00:20.547Z,20.10
2018-06-15T06:01:20.537Z,20.16
2018-06-15T06:02:20.523Z,20.06
2018-06-15T06:03:20.507Z,20.18
2018-06-15T06:04:20.490Z,20.24
2018-06-15T06:05:20.476Z,20.03
2018-06-15T06:06:20.466Z,20.13
2018-06-15T06:07:20.450Z,20.10
2018-06-15T06:08:20.435Z,20.10
2018-06-15T06:09:20.419Z,20.21
2018-06-15T06:10:20.408Z,20.18
2018-06-15T06:11:20.396Z,20.38
2018-06-15T06:12:20.381Z,20.35
2018-06-15T06:13:20.371Z,20.39
2018-06-15T06:14:20.354Z,20.31
2018-06-15T06:15:20.340Z,20.38
2018-06-15T06:16:20.328Z,20.57
2018-06-15T06:17:20.311Z,20.61
2018-06-15T06:18:20.300Z,20.59
2018-06-15T06:19:20.284Z,20.66
2018-06-15T06:20:20.269Z,20.57
2018-06-15T06:21:20.256Z,20.67
2018-06-15T06:22:20.242Z,20.73
2018-06-15T06:23:20.229Z,20.79
2018-06-15T06:24:20.215Z,20.74
2018-06-15T06:25:20.204Z,20.82
2018-06-15T06:26:20.189Z,20.76
2018-06-15T06:27:20.178Z,20.80
2018-06-15T06:28:20.163Z,20.85
2018-06-15T06:29:20.146Z,20.79
2018-06-15T06:30:20.134Z,20.74
2018-06-15T06:31:20.121Z,20.77
2018-06-15T06:32:20.108Z,20.82
2018-06-15T06:33:20.092Z,20.80
2018-06-15T06:34:20.080Z,20.89
2018-06-15T06:35:20.068Z,20.87
2018-06-15T06:36:20.052Z,20.95
2018-06-15T06:37:20.041Z,20.97
2018-06-15T06:38:20.025Z,20.99
2018-06-15T06:39:20.012Z,21.10
2018-06-15T06:40:19.999Z,21.10
2018-06-15T06:41:19.985Z,21.14
2018-06-15T06:42:19.972Z,21.04
2018-06-15T06:43:19.961Z,21.07
2018-06-15T06:44:19.945Z,21.06
2018-06-15T06:45:19.929Z,21.13
2018-06-15T06:46:19.919Z,21.16
2018-06-15T06:47:19.907Z,21.04
2018-06-15T06:48:19.890Z,21.13
2018-06-15T06:49:19.879Z,21.07
2018-06-15T06:50:19.867Z,21.14
2018-06-15T06:51:19.856Z,21.12
2018-06-15T06:52:19.839Z,21.12
2018-06-15T06:53:19.828Z,21.07
2018-06-15T06:54:19.811Z,21.21
2018-06-15T06:55:19.801Z,21.31
2018-06-15T06:56:19.785Z,21.40
2018-06-15T06:57:19.774Z,21.50
2018-06-15T06:58:19.763Z,21.43
2018-06-15T06:59:19.757Z,21.56
2018-06-15T07:00:19.733Z,21.56
2018-06-15T07:01:19.720Z,21.56
2018-06-15T07:02:19.708Z,21.65
2018-06-15T07:03:19.695Z,21.61
2018-06-15T07:04:19.684Z,21.58
2018-06-15T07:05:19.669Z,21.62
2018-06-15T07:06:19.692Z,21.67
2018-06-15T07:07:19.645Z,21.64
2018-06-15T07:08:19.629Z,21.61
2018-06-15T07:09:19.617Z,21.61
2018-06-15T07:10:19.607Z,21.84
2018-06-15T07:11:19.593Z,21.84
2018-06-15T07:12:19.583Z,21.88
2018-06-15T07:13:19.566Z,21.92
2018-06-15T07:14:19.553Z,21.92
2018-06-15T07:15:19.539Z,21.92
2018-06-15T07:16:19.530Z,21.98
2018-06-15T07:17:19.515Z,22.02
2018-06-15T07:18:19.503Z,22.09
2018-06-15T07:19:19.490Z,22.14
2018-06-15T07:20:19.479Z,22.10
2018-06-15T07:21:19.463Z,22.03
2018-06-15T07:22:19.452Z,22.05
2018-06-15T07:23:19.439Z,22.12
2018-06-15T07:24:19.429Z,22.07
2018-06-15T07:25:19.413Z,22.02
2018-06-15T07:26:19.403Z,21.98
2018-06-15T07:27:19.389Z,21.96
2018-06-15T07:28:19.374Z,21.94
2018-06-15T07:29:19.363Z,21.94
2018-06-15T07:30:19.351Z,21.94
2018-06-15T07:31:19.338Z,21.92
2018-06-15T07:32:19.325Z,22.02
2018-06-15T07:33:19.317Z,22.02
2018-06-15T07:34:19.304Z,22.09
2018-06-15T07:35:19.289Z,22.14
2018-06-15T07:36:19.276Z,22.05
2018-06-15T07:37:19.262Z,22.10
2018-06-15T07:38:19.260Z,22.18
2018-06-15T07:39:19.238Z,22.05
2018-06-15T07:40:19.228Z,22.14
2018-06-15T07:41:19.266Z,22.07
2018-06-15T07:42:19.204Z,22.10
2018-06-15T07:43:19.197Z,22.06
2018-06-15T07:44:19.177Z,22.12
2018-06-15T07:45:19.164Z,22.03
2018-06-15T07:46:19.151Z,22.14
2018-06-15T07:47:19.138Z,22.20
2018-06-15T07:48:19.125Z,22.20
2018-06-15T07:49:19.118Z,22.21
2018-06-15T07:50:19.103Z,22.15
2018-06-15T07:51:19.100Z,22.20
2018-06-15T07:52:19.076Z,22.10
2018-06-15T07:53:19.065Z,22.12
2018-06-15T07:54:19.054Z,22.10
2018-06-15T07:55:19.041Z,22.15
2018-06-15T07:56:19.029Z,22.27
2018-06-15T07:57:19.017Z,22.25
2018-06-15T07:58:19.004Z,22.36
2018-06-15T07:59:19.031Z,22.40
2018-06-15T08:00:18.978Z,22.45
2018-06-15T08:01:18.977Z,22.49
2018-06-15T08:02:18.960Z,22.46
2018-06-15T08:03:18.945Z,22.42
2018-06-15T08:04:18.932Z,22.51
2018-06-15T08:05:18.919Z,22.46
2018-06-15T08:06:18.910Z,22.40
2018-06-15T08:07:18.895Z,22.40
2018-06-15T08:08:18.883Z,22.40
2018-06-15T08:09:18.878Z,22.39
2018-06-15T08:10:18.876Z,22.36
2018-06-15T08:11:18.851Z,22.33
2018-06-15T08:12:18.836Z,22.21
2018-06-15T08:13:18.831Z,22.22
2018-06-15T08:14:18.812Z,22.27
2018-06-15T08:15:18.802Z,22.24
2018-06-15T08:16:18.790Z,22.30
2018-06-15T08:17:18.778Z,22.20
2018-06-15T08:18:18.766Z,22.36
2018-06-15T08:19:18.756Z,22.39
2018-06-15T08:20:18.742Z,22.52
2018-06-15T08:21:18.729Z,22.51
2018-06-15T08:22:18.717Z,22.61
2018-06-15T08:23:18.714Z,22.62
2018-06-15T08:24:18.696Z,22.64
2018-06-15T08:25:18.690Z,22.79
2018-06-15T08:26:18.670Z,22.86
2018-06-15T08:27:18.660Z,22.94
2018-06-15T08:28:18.653Z,23.09
2018-06-15T08:29:18.635Z,23.12
2018-06-15T08:30:18.627Z,23.20
2018-06-15T08:31:18.620Z,23.28
2018-06-15T08:32:18.601Z,23.43
2018-06-15T08:33:18.594Z,23.42
2018-06-15T08:34:18.580Z,23.43
2018-06-15T08:35:18.568Z,23.51
2018-06-15T08:36:18.556Z,23.50
2018-06-15T08:37:18.544Z,23.63
2018-06-15T08:38:18.535Z,23.68
2018-06-15T08:39:18.521Z,23.73
2018-06-15T08:40:18.515Z,23.70
2018-06-15T08:41:18.503Z,23.88
2018-06-15T08:42:18.510Z,23.90
2018-06-15T08:43:18.477Z,23.83
2018-06-15T08:44:18.465Z,23.76
2018-06-15T08:45:18.456Z,23.76
2018-06-15T08:46:18.453Z,23.73
2018-06-15T08:47:18.437Z,23.65
2018-06-15T08:48:18.427Z,23.65
2018-06-15T08:49:18.414Z,23.60
2018-06-15T08:50:18.403Z,23.58
2018-06-15T08:51:18.390Z,23.55
2018-06-15T08:52:18.379Z,23.63
2018-06-15T08:53:18.373Z,23.75
2018-06-15T08:54:18.359Z,23.87
2018-06-15T08:55:18.347Z,23.90
2018-06-15T08:56:18.335Z,24.00
2018-06-15T08:57:18.324Z,24.13
2018-06-15T08:58:18.318Z,24.21
2018-06-15T08:59:18.303Z,24.20
2018-06-15T09:00:18.295Z,24.25
2018-06-15T09:01:18.285Z,24.27
2018-06-15T09:02:18.271Z,24.30
2018-06-15T09:03:18.260Z,24.31
2018-06-15T09:04:18.250Z,24.34
2018-06-15T09:05:18.241Z,24.37
2018-06-15T09:06:18.230Z,24.40
2018-06-15T09:07:18.219Z,24.52
2018-06-15T09:08:18.211Z,24.61
2018-06-15T09:09:18.200Z,24.62
2018-06-15T09:10:18.189Z,24.65
2018-06-15T09:11:18.179Z,24.76
2018-06-15T09:12:18.168Z,24.64
2018-06-15T09:13:18.157Z,24.67
2018-06-15T09:14:18.147Z,24.77
2018-06-15T09:15:18.138Z,24.93
2018-06-15T09:16:18.129Z,24.85
2018-06-15T09:17:18.119Z,24.96
2018-06-15T09:18:18.109Z,24.95
2018-06-15T09:19:18.100Z,25.00
2018-06-15T09:20:18.089Z,25.06
2018-06-15T09:21:18.077Z,25.15
2018-06-15T09:22:18.073Z,25.17
2018-06-15T09:23:18.058Z,25.17
2018-06-15T09:24:18.053Z,25.13
2018-06-15T09:25:18.044Z,25.15
2018-06-15T09:26:18.030Z,24.98
2018-06-15T09:27:18.022Z,24.77
2018-06-15T09:28:18.010Z,24.58
2018-06-15T09:29:18.001Z,24.45
2018-06-15T09:30:17.996Z,24.32
2018-06-15T09:31:17.981Z,24.16
2018-06-15T09:32:17.975Z,24.08
2018-06-15T09:33:17.964Z,23.97
2018-06-15T09:34:17.955Z,23.98
2018-06-15T09:35:17.946Z,24.03
2018-06-15T09:36:17.933Z,24.13
2018-06-15T09:37:17.925Z,24.18
2018-06-15T09:38:17.920Z,24.32
2018-06-15T09:39:17.905Z,24.55
2018-06-15T09:40:17.893Z,24.85
2018-06-15T09:41:17.885Z,25.05
2018-06-15T09:42:17.879Z,25.46
2018-06-15T09:43:17.869Z,25.57
2018-06-15T09:44:17.860Z,25.87
2018-06-15T09:45:17.853Z,26.02
2018-06-15T09:46:17.851Z,26.06
2018-06-15T09:47:17.832Z,26.09
2018-06-15T09:48:17.822Z,26.17
2018-06-15T09:49:17.819Z,26.33
2018-06-15T09:50:17.806Z,27.02
2018-06-15T09:51:17.799Z,27.40
2018-06-15T09:52:17.787Z,28.18
2018-06-15T09:53:17.779Z,28.48
2018-06-15T09:54:17.770Z,28.64
2018-06-15T09:55:17.767Z,28.64
2018-06-15T09:56:17.764Z,28.61
2018-06-15T09:57:17.745Z,28.52
2018-06-15T09:58:17.742Z,28.39
2018-06-15T09:59:17.730Z,28.19
2018-06-15T10:00:17.723Z,27.96
2018-06-15T10:01:17.722Z,27.75
2018-06-15T10:02:17.720Z,27.54
2018-06-15T10:03:17.708Z,27.36
2018-06-15T10:04:17.692Z,27.18
2018-06-15T10:05:17.685Z,26.97
2018-06-15T10:06:17.676Z,26.88
2018-06-15T10:07:17.676Z,26.63
2018-06-15T10:08:17.661Z,26.62
2018-06-15T10:09:17.656Z,26.63
2018-06-15T10:10:17.646Z,26.51
2018-06-15T10:11:17.637Z,26.51
2018-06-15T10:12:17.629Z,26.55
2018-06-15T10:13:17.621Z,26.57
2018-06-15T10:14:17.618Z,26.72
2018-06-15T10:15:17.609Z,26.87
2018-06-15T10:16:17.597Z,26.81
2018-06-15T10:17:17.591Z,26.89
2018-06-15T10:18:17.585Z,26.94
2018-06-15T10:19:17.576Z,26.95
2018-06-15T10:20:17.567Z,27.12
2018-06-15T10:21:17.560Z,27.29
2018-06-15T10:22:17.550Z,27.40
2018-06-15T10:23:17.544Z,27.37
2018-06-15T10:24:17.536Z,27.29
2018-06-15T10:25:17.526Z,27.37
2018-06-15T10:26:17.519Z,27.21
2018-06-15T10:27:17.527Z,27.22
2018-06-15T10:28:17.503Z,27.03
2018-06-15T10:29:17.498Z,26.92
2018-06-15T10:30:17.487Z,26.85
2018-06-15T10:31:17.479Z,26.87
2018-06-15T10:32:17.473Z,26.75
2018-06-15T10:33:17.469Z,26.62
2018-06-15T10:34:17.457Z,26.69
2018-06-15T10:35:17.448Z,26.63
2018-06-15T10:36:17.445Z,26.62
2018-06-15T10:37:17.436Z,26.51
2018-06-15T10:38:17.438Z,26.30
2018-06-15T10:39:17.467Z,26.25
2018-06-15T10:40:17.411Z,26.25
2018-06-15T10:41:17.407Z,26.21
2018-06-15T10:42:17.395Z,26.21
2018-06-15T10:43:17.392Z,26.21
2018-06-15T10:44:17.379Z,26.20
2018-06-15T10:45:17.373Z,26.13
2018-06-15T10:46:17.369Z,26.05
2018-06-15T10:47:17.361Z,26.05
2018-06-15T10:48:17.348Z,25.92
2018-06-15T10:49:17.339Z,25.83
2018-06-15T10:50:17.343Z,25.72
2018-06-15T10:51:17.323Z,25.58
2018-06-15T10:52:17.315Z,25.55
2018-06-15T10:53:17.307Z,25.47
2018-06-15T10:54:17.303Z,25.33
2018-06-15T10:55:17.290Z,25.20
2018-06-15T10:56:17.306Z,25.10
2018-06-15T10:57:17.272Z,25.03
2018-06-15T10:58:17.265Z,25.02
2018-06-15T10:59:17.256Z,24.90
2018-06-15T11:00:17.247Z,24.93
2018-06-15T11:01:17.238Z,24.98
2018-06-15T11:02:17.743Z,24.95
2018-06-15T11:03:17.221Z,25.13
2018-06-15T11:04:17.215Z,25.20
2018-06-15T11:05:17.203Z,25.36
2018-06-15T11:06:17.201Z,25.33
2018-06-15T11:07:17.188Z,25.46
2018-06-15T11:08:17.225Z,25.58
2018-06-15T11:09:17.169Z,25.58
2018-06-15T11:10:17.160Z,25.52
2018-06-15T11:11:17.151Z,25.73
2018-06-15T11:12:17.143Z,25.73
2018-06-15T11:13:17.133Z,25.70
2018-06-15T11:14:17.124Z,25.70
2018-06-15T11:15:17.115Z,25.65
2018-06-15T11:16:17.105Z,25.55
2018-06-15T11:17:17.096Z,25.45
2018-06-15T11:18:17.092Z,25.40
2018-06-15T11:19:17.080Z,25.20
2018-06-15T11:20:17.070Z,25.06
2018-06-15T11:21:17.060Z,25.06
2018-06-15T11:22:17.051Z,24.96
2018-06-15T11:23:17.048Z,24.81
2018-06-15T11:24:17.032Z,24.65
2018-06-15T11:25:17.023Z,24.71
2018-06-15T11:26:17.022Z,24.64
2018-06-15T11:27:17.006Z,24.57
2018-06-15T11:28:16.999Z,24.43
2018-06-15T11:29:16.985Z,24.35
2018-06-15T11:30:16.976Z,24.30
2018-06-15T11:31:16.974Z,24.25
2018-06-15T11:32:16.955Z,24.16
2018-06-15T11:33:16.947Z,24.12
2018-06-15T11:34:16.936Z,23.91
2018-06-15T11:35:16.929Z,23.72
2018-06-15T11:36:16.918Z,23.60
2018-06-15T11:37:16.907Z,23.68
2018-06-15T11:38:16.900Z,23.61
2018-06-15T11:39:16.888Z,23.63
2018-06-15T11:40:16.878Z,23.57
2018-06-15T11:41:17.030Z,23.48
2018-06-15T11:42:16.861Z,23.32
2018-06-15T11:43:16.854Z,23.35
2018-06-15T11:44:16.837Z,23.23
2018-06-15T11:45:16.832Z,23.10
2018-06-15T11:46:16.818Z,23.01
2018-06-15T11:47:16.811Z,23.04
2018-06-15T11:48:16.795Z,23.04
2018-06-15T11:49:16.787Z,23.00
2018-06-15T11:50:16.778Z,23.02
2018-06-15T11:51:16.773Z,23.13
2018-06-15T11:52:16.753Z,23.19
2018-06-15T11:53:16.746Z,23.27
2018-06-15T11:54:16.733Z,23.36
2018-06-15T11:55:16.722Z,23.36
2018-06-15T11:56:16.711Z,23.39
2018-06-15T11:57:16.704Z,23.38
2018-06-15T11:58:16.693Z,23.53
2018-06-15T11:59:16.682Z,23.60
2018-06-15T12:00:16.670Z,23.46
2018-06-15T12:01:16.669Z,23.66
2018-06-15T12:02:16.651Z,23.70
2018-06-15T12:03:16.641Z,23.87
2018-06-15T12:04:16.627Z,23.88
2018-06-15T12:05:16.619Z,24.09
2018-06-15T12:06:16.606Z,24.10
2018-06-15T12:07:16.594Z,24.08
2018-06-15T12:08:16.588Z,24.16
2018-06-15T12:09:16.574Z,24.32
2018-06-15T12:10:16.564Z,24.34
2018-06-15T12:11:16.553Z,24.34
2018-06-15T12:12:16.541Z,24.47
2018-06-15T12:13:16.533Z,24.52
2018-06-15T12:14:16.551Z,24.53
2018-06-15T12:15:16.515Z,24.67
2018-06-15T12:16:16.500Z,24.64
2018-06-15T12:17:16.489Z,24.71
2018-06-15T12:18:16.478Z,24.55
2018-06-15T12:19:16.468Z,24.53
2018-06-15T12:20:16.468Z,24.67
2018-06-15T12:21:16.450Z,24.50
2018-06-15T12:22:16.437Z,24.50
2018-06-15T12:23:16.429Z,24.53
2018-06-15T12:24:16.416Z,24.52
2018-06-15T12:25:16.407Z,24.52
2018-06-15T12:26:16.395Z,24.55
2018-06-15T12:27:16.391Z,24.67
2018-06-15T12:28:16.375Z,24.61
2018-06-15T12:29:16.365Z,24.68
2018-06-15T12:30:16.353Z,24.58
2018-06-15T12:31:16.348Z,24.60
2018-06-15T12:32:16.333Z,24.53
2018-06-15T12:33:16.330Z,24.58
2018-06-15T12:34:16.363Z,24.58
2018-06-15T12:35:16.304Z,24.50
2018-06-15T12:36:16.295Z,24.34
2018-06-15T12:37:16.280Z,24.32
2018-06-15T12:38:16.272Z,24.35
2018-06-15T12:39:16.262Z,24.30
2018-06-15T12:40:16.253Z,24.27
2018-06-15T12:41:16.242Z,24.30
2018-06-15T12:42:16.233Z,24.37
2018-06-15T12:43:16.222Z,24.25
2018-06-15T12:44:16.210Z,24.30
2018-06-15T12:45:16.199Z,24.47
2018-06-15T12:46:16.189Z,24.52
2018-06-15T12:47:16.180Z,24.50
2018-06-15T12:48:16.166Z,24.53
2018-06-15T12:49:16.159Z,24.50
2018-06-15T12:50:16.146Z,24.47
2018-06-15T12:51:16.188Z,24.45
2018-06-15T12:52:16.126Z,24.45